NASA801 KEDW-KEDW
Flight info
| Callsign | NASA801 |
|---|---|
| Flight time | 0h 45m |
| Altitude | 55000 |
| Route | NID |
| Aircraft | X59/M-SDGHITUY/LB2 |
Departure
| Time | 2026-05-04 19:14 |
|---|---|
| Airport | Edwards Air Force Base (KEDW) |
Arrival
| Time | 2026-05-04 19:59 |
|---|---|
| Airport | Edwards Air Force Base (KEDW) |
| Time | Latitude | Longitude | Altitude | Speed | Heading |
|---|---|---|---|---|---|
| 2026-05-04 18:57 | 34.93800 | -117.88950 | 2291 ft | 0 kts | 58° |
| 2026-05-04 19:05 | 34.93808 | -117.88935 | 2290 ft | 20 kts | 58° |
| 2026-05-04 19:05 | 34.93810 | -117.88930 | 2290 ft | 0 kts | 61° |
| 2026-05-04 19:08 | 34.93816 | -117.88921 | 2290 ft | 4 kts | 56° |
| 2026-05-04 19:08 | 34.93834 | -117.88887 | 2289 ft | 5 kts | 57° |
| 2026-05-04 19:08 | 34.93841 | -117.88869 | 2288 ft | 0 kts | 69° |
| 2026-05-04 19:08 | 34.93868 | -117.88760 | 2286 ft | 15 kts | 83° |
| 2026-05-04 19:09 | 34.93807 | -117.88672 | 2285 ft | 17 kts | 168° |
| 2026-05-04 19:09 | 34.93637 | -117.88635 | 2284 ft | 23 kts | 168° |
| 2026-05-04 19:09 | 34.93501 | -117.88604 | 2286 ft | 19 kts | 171° |
| 2026-05-04 19:09 | 34.93351 | -117.88573 | 2286 ft | 27 kts | 170° |
| 2026-05-04 19:10 | 34.93177 | -117.88537 | 2286 ft | 21 kts | 168° |
| 2026-05-04 19:10 | 34.93064 | -117.88511 | 2287 ft | 12 kts | 169° |
| 2026-05-04 19:10 | 34.93010 | -117.88498 | 2288 ft | 3 kts | 169° |
| 2026-05-04 19:10 | 34.92910 | -117.88477 | 2287 ft | 25 kts | 170° |
| 2026-05-04 19:11 | 34.92707 | -117.88438 | 2289 ft | 37 kts | 169° |
| 2026-05-04 19:11 | 34.92486 | -117.88391 | 2291 ft | 28 kts | 177° |
| 2026-05-04 19:11 | 34.92325 | -117.88364 | 2292 ft | 19 kts | 171° |
| 2026-05-04 19:11 | 34.92216 | -117.88332 | 2293 ft | 18 kts | 148° |
| 2026-05-04 19:12 | 34.92149 | -117.88151 | 2291 ft | 23 kts | 108° |
| 2026-05-04 19:12 | 34.92052 | -117.87736 | 2288 ft | 45 kts | 106° |
| 2026-05-04 19:12 | 34.91992 | -117.87476 | 2288 ft | 14 kts | 105° |
| 2026-05-04 19:13 | 34.91976 | -117.87408 | 2288 ft | 6 kts | 106° |
| 2026-05-04 19:13 | 34.91950 | -117.87335 | 2288 ft | 8 kts | 131° |
| 2026-05-04 19:13 | 34.91886 | -117.87332 | 2288 ft | 7 kts | 220° |
| 2026-05-04 19:13 | 34.91817 | -117.87484 | 2288 ft | 82 kts | 239° |
| 2026-05-04 19:14 | 34.91163 | -117.88771 | 2303 ft | 269 kts | 240° |
| 2026-05-04 19:14 | 34.89952 | -117.91232 | 2970 ft | 378 kts | 238° |
| 2026-05-04 19:14 | 34.88450 | -117.93919 | 4527 ft | 401 kts | 225° |
| 2026-05-04 19:14 | 34.86134 | -117.95877 | 7038 ft | 424 kts | 204° |
| 2026-05-04 19:15 | 34.83286 | -117.96662 | 10342 ft | 451 kts | 187° |
| 2026-05-04 19:15 | 34.81062 | -117.96883 | 11142 ft | 508 kts | 184° |
| 2026-05-04 19:15 | 34.76361 | -117.96734 | 10979 ft | 509 kts | 174° |
| 2026-05-04 19:15 | 34.72886 | -117.95941 | 10812 ft | 507 kts | 162° |
| 2026-05-04 19:16 | 34.69976 | -117.93819 | 12102 ft | 477 kts | 141° |
| 2026-05-04 19:16 | 34.67916 | -117.90968 | 13245 ft | 480 kts | 123° |
| 2026-05-04 19:16 | 34.66502 | -117.87325 | 14452 ft | 476 kts | 107° |
| 2026-05-04 19:16 | 34.66099 | -117.83393 | 15653 ft | 467 kts | 88° |
| 2026-05-04 19:17 | 34.66747 | -117.79560 | 16862 ft | 465 kts | 69° |
| 2026-05-04 19:17 | 34.68419 | -117.76083 | 18111 ft | 488 kts | 51° |
| 2026-05-04 19:17 | 34.71011 | -117.73276 | 19360 ft | 509 kts | 33° |
| 2026-05-04 19:17 | 34.74313 | -117.71468 | 20605 ft | 527 kts | 16° |
| 2026-05-04 19:18 | 34.77998 | -117.70891 | 21843 ft | 544 kts | 0° |
| 2026-05-04 19:18 | 34.80558 | -117.70818 | 22708 ft | 552 kts | 1° |
| 2026-05-04 19:18 | 34.85603 | -117.70702 | 24374 ft | 549 kts | 1° |
| 2026-05-04 19:18 | 34.89459 | -117.70615 | 25643 ft | 555 kts | 1° |
| 2026-05-04 19:19 | 34.93317 | -117.70544 | 26887 ft | 554 kts | 0° |
| 2026-05-04 19:19 | 34.97161 | -117.70480 | 28138 ft | 550 kts | 0° |
| 2026-05-04 19:19 | 35.00962 | -117.70416 | 29384 ft | 546 kts | 0° |
| 2026-05-04 19:19 | 35.04782 | -117.70351 | 30645 ft | 543 kts | 0° |
| 2026-05-04 19:20 | 35.07245 | -117.70309 | 31463 ft | 540 kts | 0° |
| 2026-05-04 19:20 | 35.12162 | -117.70212 | 33103 ft | 533 kts | 1° |
| 2026-05-04 19:20 | 35.15874 | -117.70134 | 34354 ft | 527 kts | 1° |
| 2026-05-04 19:20 | 35.19456 | -117.70058 | 35576 ft | 519 kts | 1° |
| 2026-05-04 19:21 | 35.23117 | -117.69981 | 36838 ft | 531 kts | 1° |
| 2026-05-04 19:21 | 35.26846 | -117.69906 | 38082 ft | 535 kts | 1° |
| 2026-05-04 19:21 | 35.30570 | -117.69830 | 39331 ft | 534 kts | 1° |
| 2026-05-04 19:21 | 35.34258 | -117.69754 | 40575 ft | 532 kts | 1° |
| 2026-05-04 19:22 | 35.37944 | -117.69679 | 41813 ft | 544 kts | 1° |
| 2026-05-04 19:22 | 35.42029 | -117.69596 | 43099 ft | 616 kts | 1° |
| 2026-05-04 19:22 | 35.46431 | -117.69506 | 44374 ft | 643 kts | 1° |
| 2026-05-04 19:22 | 35.49401 | -117.69446 | 45186 ft | 628 kts | 1° |
| 2026-05-04 19:23 | 35.55334 | -117.69324 | 46880 ft | 648 kts | 1° |
| 2026-05-04 19:23 | 35.59810 | -117.69231 | 48096 ft | 648 kts | 1° |
| 2026-05-04 19:23 | 35.64326 | -117.69137 | 49333 ft | 646 kts | 1° |
| 2026-05-04 19:23 | 35.68815 | -117.68760 | 50489 ft | 641 kts | 11° |
| 2026-05-04 19:24 | 35.73029 | -117.67033 | 51801 ft | 650 kts | 26° |
| 2026-05-04 19:24 | 35.76905 | -117.64051 | 52738 ft | 678 kts | 38° |
| 2026-05-04 19:24 | 35.80286 | -117.59799 | 53561 ft | 699 kts | 52° |
| 2026-05-04 19:24 | 35.82915 | -117.54566 | 54389 ft | 720 kts | 61° |
| 2026-05-04 19:25 | 35.85325 | -117.49062 | 54908 ft | 733 kts | 61° |
| 2026-05-04 19:25 | 35.90190 | -117.37920 | 55001 ft | 744 kts | 61° |
| 2026-05-04 19:26 | 35.94486 | -117.28085 | 55008 ft | 751 kts | 62° |
| 2026-05-04 19:26 | 35.99502 | -117.16601 | 54997 ft | 757 kts | 62° |
| 2026-05-04 19:27 | 36.04514 | -117.05125 | 55000 ft | 763 kts | 62° |
| 2026-05-04 19:27 | 36.09584 | -116.93517 | 55000 ft | 767 kts | 62° |
| 2026-05-04 19:28 | 36.14681 | -116.81851 | 54999 ft | 771 kts | 61° |
| 2026-05-04 19:28 | 36.19793 | -116.70147 | 55000 ft | 774 kts | 61° |
| 2026-05-04 19:29 | 36.24944 | -116.58358 | 55000 ft | 776 kts | 61° |
| 2026-05-04 19:29 | 36.30084 | -116.46594 | 55000 ft | 778 kts | 61° |
| 2026-05-04 19:30 | 36.35252 | -116.34766 | 55000 ft | 780 kts | 62° |
| 2026-05-04 19:30 | 36.40476 | -116.22814 | 55000 ft | 781 kts | 62° |
| 2026-05-04 19:31 | 36.45658 | -116.10957 | 55000 ft | 782 kts | 62° |
| 2026-05-04 19:31 | 36.50864 | -115.99046 | 55000 ft | 783 kts | 61° |
| 2026-05-04 19:32 | 36.56035 | -115.87098 | 54998 ft | 784 kts | 61° |
| 2026-05-04 19:32 | 36.60975 | -115.74907 | 55022 ft | 781 kts | 67° |
| 2026-05-04 19:33 | 36.65999 | -115.62933 | 54975 ft | 782 kts | 61° |
| 2026-05-04 19:33 | 36.71210 | -115.51064 | 55013 ft | 783 kts | 61° |
| 2026-05-04 19:34 | 36.76444 | -115.39143 | 54994 ft | 784 kts | 61° |
| 2026-05-04 19:34 | 36.81687 | -115.27203 | 55003 ft | 785 kts | 61° |
| 2026-05-04 19:35 | 36.86095 | -115.17165 | 54998 ft | 786 kts | 61° |
| 2026-05-04 19:35 | 36.91363 | -115.05171 | 55001 ft | 787 kts | 61° |
| 2026-05-04 19:36 | 36.97484 | -114.91235 | 55000 ft | 787 kts | 61° |
| 2026-05-04 19:36 | 37.01698 | -114.81129 | 54952 ft | 786 kts | 69° |
| 2026-05-04 19:36 | 37.03377 | -114.72156 | 54980 ft | 782 kts | 85° |
| 2026-05-04 19:37 | 37.03279 | -114.65400 | 55044 ft | 779 kts | 97° |
| 2026-05-04 19:37 | 36.99741 | -114.52615 | 55015 ft | 774 kts | 122° |
| 2026-05-04 19:37 | 36.96483 | -114.47281 | 54994 ft | 773 kts | 134° |
| 2026-05-04 19:38 | 36.92428 | -114.42966 | 55053 ft | 772 kts | 145° |
| 2026-05-04 19:38 | 36.84341 | -114.38391 | 55003 ft | 770 kts | 166° |
| 2026-05-04 19:38 | 36.77301 | -114.37457 | 55007 ft | 769 kts | 182° |
| 2026-05-04 19:39 | 36.72020 | -114.38406 | 55051 ft | 768 kts | 194° |
| 2026-05-04 19:39 | 36.67065 | -114.40686 | 55051 ft | 766 kts | 206° |
| 2026-05-04 19:39 | 36.64006 | -114.42911 | 55012 ft | 767 kts | 214° |
| 2026-05-04 19:39 | 36.58747 | -114.48938 | 55013 ft | 767 kts | 231° |
| 2026-05-04 19:40 | 36.55791 | -114.54432 | 55075 ft | 767 kts | 237° |
| 2026-05-04 19:40 | 36.49759 | -114.65366 | 54997 ft | 773 kts | 235° |
| 2026-05-04 19:41 | 36.44611 | -114.74612 | 55008 ft | 777 kts | 235° |
| 2026-05-04 19:41 | 36.37427 | -114.87485 | 55002 ft | 782 kts | 235° |
| 2026-05-04 19:42 | 36.32247 | -114.96744 | 55000 ft | 785 kts | 235° |
| 2026-05-04 19:42 | 36.24958 | -115.09740 | 55001 ft | 787 kts | 235° |
| 2026-05-04 19:43 | 36.18683 | -115.20899 | 54999 ft | 789 kts | 235° |
| 2026-05-04 19:43 | 36.13619 | -115.30210 | 55000 ft | 790 kts | 237° |
| 2026-05-04 19:44 | 36.06738 | -115.43498 | 55000 ft | 791 kts | 238° |
| 2026-05-04 19:44 | 36.01035 | -115.54932 | 55000 ft | 792 kts | 239° |
| 2026-05-04 19:45 | 35.95417 | -115.66465 | 55000 ft | 792 kts | 239° |
| 2026-05-04 19:45 | 35.90733 | -115.76224 | 55000 ft | 793 kts | 239° |
| 2026-05-04 19:46 | 35.84252 | -115.89883 | 55000 ft | 793 kts | 239° |
| 2026-05-04 19:46 | 35.79651 | -115.99652 | 55000 ft | 793 kts | 240° |
| 2026-05-04 19:47 | 35.74132 | -116.11420 | 55000 ft | 794 kts | 240° |
| 2026-05-04 19:47 | 35.70444 | -116.19305 | 54465 ft | 790 kts | 240° |
| 2026-05-04 19:47 | 35.67750 | -116.25068 | 53801 ft | 782 kts | 240° |
| 2026-05-04 19:47 | 35.65038 | -116.30874 | 53066 ft | 775 kts | 240° |
| 2026-05-04 19:48 | 35.62384 | -116.36561 | 52325 ft | 756 kts | 240° |
| 2026-05-04 19:48 | 35.60680 | -116.40208 | 51840 ft | 745 kts | 240° |
| 2026-05-04 19:48 | 35.58112 | -116.45709 | 51095 ft | 730 kts | 240° |
| 2026-05-04 19:48 | 35.54791 | -116.52822 | 50094 ft | 712 kts | 240° |
| 2026-05-04 19:49 | 35.53163 | -116.56310 | 49596 ft | 703 kts | 240° |
| 2026-05-04 19:49 | 35.49945 | -116.63197 | 48600 ft | 686 kts | 240° |
| 2026-05-04 19:49 | 35.48369 | -116.66568 | 48102 ft | 678 kts | 240° |
| 2026-05-04 19:49 | 35.45551 | -116.73311 | 47125 ft | 665 kts | 244° |
| 2026-05-04 19:50 | 35.43547 | -116.78368 | 46319 ft | 660 kts | 243° |
| 2026-05-04 19:50 | 35.42169 | -116.81745 | 45495 ft | 660 kts | 243° |
| 2026-05-04 19:50 | 35.40099 | -116.86684 | 44404 ft | 659 kts | 242° |
| 2026-05-04 19:50 | 35.37954 | -116.91665 | 43274 ft | 657 kts | 242° |
| 2026-05-04 19:51 | 35.35196 | -116.97901 | 41581 ft | 600 kts | 241° |
| 2026-05-04 19:51 | 35.33877 | -117.00828 | 40740 ft | 578 kts | 241° |
| 2026-05-04 19:51 | 35.32017 | -117.04902 | 39487 ft | 539 kts | 240° |
| 2026-05-04 19:51 | 35.29568 | -117.10185 | 37833 ft | 531 kts | 240° |
| 2026-05-04 19:52 | 35.27746 | -117.14067 | 36598 ft | 530 kts | 240° |
| 2026-05-04 19:52 | 35.26516 | -117.16666 | 35769 ft | 530 kts | 240° |
| 2026-05-04 19:52 | 35.24673 | -117.20534 | 34518 ft | 524 kts | 239° |
| 2026-05-04 19:52 | 35.22867 | -117.24293 | 33282 ft | 519 kts | 239° |
| 2026-05-04 19:53 | 35.20417 | -117.29349 | 31603 ft | 513 kts | 239° |
| 2026-05-04 19:53 | 35.19218 | -117.31808 | 30776 ft | 510 kts | 239° |
| 2026-05-04 19:53 | 35.17410 | -117.35499 | 29519 ft | 505 kts | 239° |
| 2026-05-04 19:53 | 35.15052 | -117.40338 | 27872 ft | 499 kts | 239° |
| 2026-05-04 19:54 | 35.13886 | -117.42750 | 25764 ft | 522 kts | 239° |
| 2026-05-04 19:54 | 35.12067 | -117.46470 | 24597 ft | 505 kts | 239° |
| 2026-05-04 19:54 | 35.10270 | -117.50113 | 22467 ft | 503 kts | 239° |
| 2026-05-04 19:54 | 35.08545 | -117.53596 | 20542 ft | 491 kts | 239° |
| 2026-05-04 19:55 | 35.06234 | -117.58165 | 14484 ft | 503 kts | 238° |
| 2026-05-04 19:55 | 35.04446 | -117.61556 | 12391 ft | 462 kts | 237° |
| 2026-05-04 19:55 | 35.02828 | -117.64593 | 11233 ft | 411 kts | 237° |
| 2026-05-04 19:55 | 35.01433 | -117.67268 | 10864 ft | 357 kts | 237° |
| 2026-05-04 19:56 | 35.00149 | -117.69751 | 9958 ft | 358 kts | 237° |
| 2026-05-04 19:56 | 34.98871 | -117.72220 | 8543 ft | 342 kts | 237° |
| 2026-05-04 19:56 | 34.98034 | -117.73836 | 7642 ft | 335 kts | 237° |
| 2026-05-04 19:56 | 34.96395 | -117.76993 | 5139 ft | 334 kts | 238° |
| 2026-05-04 19:57 | 34.95253 | -117.79253 | 4629 ft | 299 kts | 238° |
| 2026-05-04 19:57 | 34.94529 | -117.80627 | 3886 ft | 293 kts | 237° |
| 2026-05-04 19:57 | 34.93449 | -117.82668 | 2766 ft | 284 kts | 237° |
| 2026-05-04 19:57 | 34.92163 | -117.85166 | 2363 ft | 237 kts | 238° |
| 2026-05-04 19:58 | 34.91352 | -117.86746 | 2283 ft | 205 kts | 238° |
| 2026-05-04 19:58 | 34.90956 | -117.87526 | 2288 ft | 187 kts | 239° |
| 2026-05-04 19:58 | 34.90949 | -117.87540 | 2288 ft | 187 kts | 239° |
| 2026-05-04 19:58 | 34.90196 | -117.89059 | 2296 ft | 154 kts | 239° |
| 2026-05-04 19:59 | 34.89719 | -117.90009 | 2301 ft | 127 kts | 238° |
| 2026-05-04 19:59 | 34.89548 | -117.90339 | 2301 ft | 24 kts | 238° |
| 2026-05-04 19:59 | 34.89511 | -117.90410 | 2301 ft | 0 kts | 237° |